sensor_id;sensor_type;location;lat;lon;timestamp;temperature;humidity
10875;DHT22;5490;52.200;8.786;2023-04-08T00:00:35;7.70;99.90
10875;DHT22;5490;52.200;8.786;2023-04-08T00:03:02;7.60;99.90
10875;DHT22;5490;52.200;8.786;2023-04-08T00:05:29;7.60;99.90
10875;DHT22;5490;52.200;8.786;2023-04-08T00:07:57;7.60;99.90
10875;DHT22;5490;52.200;8.786;2023-04-08T00:10:26;7.60;99.90
10875;DHT22;5490;52.200;8.786;2023-04-08T00:12:53;7.60;99.90
10875;DHT22;5490;52.200;8.786;2023-04-08T00:15:20;7.60;99.90
10875;DHT22;5490;52.200;8.786;2023-04-08T00:17:46;7.50;99.90
10875;DHT22;5490;52.200;8.786;2023-04-08T00:20:13;7.50;99.90
10875;DHT22;5490;52.200;8.786;2023-04-08T00:22:40;7.50;99.90
10875;DHT22;5490;52.200;8.786;2023-04-08T00:25:08;7.40;99.90
10875;DHT22;5490;52.200;8.786;2023-04-08T00:27:35;7.40;99.90
10875;DHT22;5490;52.200;8.786;2023-04-08T00:30:02;7.50;99.90
10875;DHT22;5490;52.200;8.786;2023-04-08T00:32:29;7.50;99.90
10875;DHT22;5490;52.200;8.786;2023-04-08T00:34:56;7.60;99.90
10875;DHT22;5490;52.200;8.786;2023-04-08T00:37:22;7.40;99.90
10875;DHT22;5490;52.200;8.786;2023-04-08T00:39:49;7.50;99.90
10875;DHT22;5490;52.200;8.786;2023-04-08T00:42:19;7.60;99.90
10875;DHT22;5490;52.200;8.786;2023-04-08T00:44:46;7.60;99.90
10875;DHT22;5490;52.200;8.786;2023-04-08T00:47:14;7.50;99.90
10875;DHT22;5490;52.200;8.786;2023-04-08T00:49:41;7.60;99.90
10875;DHT22;5490;52.200;8.786;2023-04-08T00:52:08;7.60;99.90
10875;DHT22;5490;52.200;8.786;2023-04-08T00:54:35;7.50;99.90
10875;DHT22;5490;52.200;8.786;2023-04-08T00:57:03;7.50;99.90
10875;DHT22;5490;52.200;8.786;2023-04-08T00:59:32;7.50;99.90
10875;DHT22;5490;52.200;8.786;2023-04-08T01:02:07;7.50;99.90
10875;DHT22;5490;52.200;8.786;2023-04-08T01:04:44;7.50;99.90
10875;DHT22;5490;52.200;8.786;2023-04-08T01:07:17;7.50;99.90
10875;DHT22;5490;52.200;8.786;2023-04-08T01:09:46;7.40;99.90
10875;DHT22;5490;52.200;8.786;2023-04-08T01:12:18;7.40;99.90
10875;DHT22;5490;52.200;8.786;2023-04-08T01:14:48;7.50;99.90
10875;DHT22;5490;52.200;8.786;2023-04-08T01:17:18;7.50;99.90
10875;DHT22;5490;52.200;8.786;2023-04-08T01:19:48;7.50;99.90
10875;DHT22;5490;52.200;8.786;2023-04-08T01:22:24;7.50;99.90
10875;DHT22;5490;52.200;8.786;2023-04-08T01:24:56;7.50;99.90
10875;DHT22;5490;52.200;8.786;2023-04-08T01:27:26;7.50;99.90
10875;DHT22;5490;52.200;8.786;2023-04-08T01:29:54;7.50;99.90
10875;DHT22;5490;52.200;8.786;2023-04-08T01:32:22;7.60;99.90
10875;DHT22;5490;52.200;8.786;2023-04-08T01:34:50;7.60;99.90
10875;DHT22;5490;52.200;8.786;2023-04-08T01:37:18;7.60;99.90
10875;DHT22;5490;52.200;8.786;2023-04-08T01:39:46;7.70;99.90
10875;DHT22;5490;52.200;8.786;2023-04-08T01:42:15;7.70;99.90
10875;DHT22;5490;52.200;8.786;2023-04-08T01:44:44;7.80;99.90
10875;DHT22;5490;52.200;8.786;2023-04-08T01:47:12;7.80;99.90
10875;DHT22;5490;52.200;8.786;2023-04-08T01:49:39;7.80;99.90
10875;DHT22;5490;52.200;8.786;2023-04-08T01:52:08;7.80;99.90
10875;DHT22;5490;52.200;8.786;2023-04-08T01:54:35;7.80;99.90
10875;DHT22;5490;52.200;8.786;2023-04-08T01:57:03;7.80;99.90
10875;DHT22;5490;52.200;8.786;2023-04-08T01:59:34;7.90;99.90
10875;DHT22;5490;52.200;8.786;2023-04-08T02:02:04;8.00;99.90
10875;DHT22;5490;52.200;8.786;2023-04-08T02:04:32;7.90;99.90
10875;DHT22;5490;52.200;8.786;2023-04-08T02:07:00;7.90;99.90
10875;DHT22;5490;52.200;8.786;2023-04-08T02:09:27;7.90;99.90
10875;DHT22;5490;52.200;8.786;2023-04-08T02:11:54;7.90;99.90
10875;DHT22;5490;52.200;8.786;2023-04-08T02:14:21;7.90;99.90
10875;DHT22;5490;52.200;8.786;2023-04-08T02:16:53;7.90;99.90
10875;DHT22;5490;52.200;8.786;2023-04-08T02:19:24;7.90;99.90
10875;DHT22;5490;52.200;8.786;2023-04-08T02:21:55;7.90;99.90
10875;DHT22;5490;52.200;8.786;2023-04-08T02:24:24;7.90;99.90
10875;DHT22;5490;52.200;8.786;2023-04-08T02:26:54;7.90;99.90
10875;DHT22;5490;52.200;8.786;2023-04-08T02:29:22;7.90;99.90
10875;DHT22;5490;52.200;8.786;2023-04-08T02:31:50;8.00;99.90
10875;DHT22;5490;52.200;8.786;2023-04-08T02:34:19;7.90;99.90
10875;DHT22;5490;52.200;8.786;2023-04-08T02:36:49;7.90;99.90
10875;DHT22;5490;52.200;8.786;2023-04-08T02:39:16;7.90;99.90
10875;DHT22;5490;52.200;8.786;2023-04-08T02:41:43;7.90;99.90
10875;DHT22;5490;52.200;8.786;2023-04-08T02:44:10;7.90;99.90
10875;DHT22;5490;52.200;8.786;2023-04-08T02:46:36;7.90;99.90
10875;DHT22;5490;52.200;8.786;2023-04-08T02:49:03;7.80;99.90
10875;DHT22;5490;52.200;8.786;2023-04-08T02:51:30;7.80;99.90
10875;DHT22;5490;52.200;8.786;2023-04-08T02:53:59;7.70;99.90
10875;DHT22;5490;52.200;8.786;2023-04-08T02:56:26;7.70;99.90
10875;DHT22;5490;52.200;8.786;2023-04-08T02:58:52;7.60;99.90
10875;DHT22;5490;52.200;8.786;2023-04-08T03:01:19;7.60;99.90
10875;DHT22;5490;52.200;8.786;2023-04-08T03:03:46;7.60;99.90
10875;DHT22;5490;52.200;8.786;2023-04-08T03:06:13;7.70;99.90
10875;DHT22;5490;52.200;8.786;2023-04-08T03:08:39;7.70;99.90
10875;DHT22;5490;52.200;8.786;2023-04-08T03:11:07;7.70;99.90
10875;DHT22;5490;52.200;8.786;2023-04-08T03:13:34;7.70;99.90
10875;DHT22;5490;52.200;8.786;2023-04-08T03:16:01;7.70;99.90
10875;DHT22;5490;52.200;8.786;2023-04-08T03:18:28;7.80;99.90
10875;DHT22;5490;52.200;8.786;2023-04-08T03:20:55;7.80;99.90
10875;DHT22;5490;52.200;8.786;2023-04-08T03:23:22;7.80;99.90
10875;DHT22;5490;52.200;8.786;2023-04-08T03:25:48;7.80;99.90
10875;DHT22;5490;52.200;8.786;2023-04-08T03:28:16;7.80;99.90
10875;DHT22;5490;52.200;8.786;2023-04-08T03:30:43;7.80;99.90
10875;DHT22;5490;52.200;8.786;2023-04-08T03:33:10;7.80;99.90
10875;DHT22;5490;52.200;8.786;2023-04-08T03:35:37;7.80;99.90
10875;DHT22;5490;52.200;8.786;2023-04-08T03:38:04;7.80;99.90
10875;DHT22;5490;52.200;8.786;2023-04-08T03:40:31;7.80;99.90
10875;DHT22;5490;52.200;8.786;2023-04-08T03:42:57;7.80;99.90
10875;DHT22;5490;52.200;8.786;2023-04-08T03:45:25;7.80;99.90
10875;DHT22;5490;52.200;8.786;2023-04-08T03:47:53;7.80;99.90
10875;DHT22;5490;52.200;8.786;2023-04-08T03:50:19;7.80;99.90
10875;DHT22;5490;52.200;8.786;2023-04-08T03:52:46;7.80;99.90
10875;DHT22;5490;52.200;8.786;2023-04-08T03:55:13;7.80;99.90
10875;DHT22;5490;52.200;8.786;2023-04-08T03:57:40;7.70;99.90
10875;DHT22;5490;52.200;8.786;2023-04-08T04:00:07;7.70;99.90
10875;DHT22;5490;52.200;8.786;2023-04-08T04:02:36;7.70;99.90
10875;DHT22;5490;52.200;8.786;2023-04-08T04:05:03;7.80;99.90
10875;DHT22;5490;52.200;8.786;2023-04-08T04:07:29;7.80;99.90
10875;DHT22;5490;52.200;8.786;2023-04-08T04:09:56;7.80;99.90
10875;DHT22;5490;52.200;8.786;2023-04-08T04:12:23;7.80;99.90
10875;DHT22;5490;52.200;8.786;2023-04-08T04:14:50;7.80;99.90
10875;DHT22;5490;52.200;8.786;2023-04-08T04:17:17;7.80;99.90
10875;DHT22;5490;52.200;8.786;2023-04-08T04:19:45;7.80;99.90
10875;DHT22;5490;52.200;8.786;2023-04-08T04:22:12;7.80;99.90
10875;DHT22;5490;52.200;8.786;2023-04-08T04:24:38;7.80;99.90
10875;DHT22;5490;52.200;8.786;2023-04-08T04:27:05;7.80;99.90
10875;DHT22;5490;52.200;8.786;2023-04-08T04:29:32;7.70;99.90
10875;DHT22;5490;52.200;8.786;2023-04-08T04:31:58;7.70;99.90
10875;DHT22;5490;52.200;8.786;2023-04-08T04:34:25;7.70;99.90
10875;DHT22;5490;52.200;8.786;2023-04-08T04:36:53;7.70;99.90
10875;DHT22;5490;52.200;8.786;2023-04-08T04:39:20;7.70;99.90
10875;DHT22;5490;52.200;8.786;2023-04-08T04:41:47;7.70;99.90
10875;DHT22;5490;52.200;8.786;2023-04-08T04:44:13;7.70;99.90
10875;DHT22;5490;52.200;8.786;2023-04-08T04:46:40;7.70;99.90
10875;DHT22;5490;52.200;8.786;2023-04-08T04:49:07;7.70;99.90
10875;DHT22;5490;52.200;8.786;2023-04-08T04:51:34;7.60;99.90
10875;DHT22;5490;52.200;8.786;2023-04-08T04:54:02;7.60;99.90
10875;DHT22;5490;52.200;8.786;2023-04-08T04:56:45;7.60;99.90
10875;DHT22;5490;52.200;8.786;2023-04-08T04:59:12;7.60;99.90
10875;DHT22;5490;52.200;8.786;2023-04-08T05:01:39;7.60;99.90
10875;DHT22;5490;52.200;8.786;2023-04-08T05:04:06;7.60;99.90
10875;DHT22;5490;52.200;8.786;2023-04-08T05:06:33;7.60;99.90
10875;DHT22;5490;52.200;8.786;2023-04-08T05:09:00;7.60;99.90
10875;DHT22;5490;52.200;8.786;2023-04-08T05:11:28;7.60;99.90
10875;DHT22;5490;52.200;8.786;2023-04-08T05:13:54;7.60;99.90
10875;DHT22;5490;52.200;8.786;2023-04-08T05:16:21;7.60;99.90
10875;DHT22;5490;52.200;8.786;2023-04-08T05:18:48;7.60;99.90
10875;DHT22;5490;52.200;8.786;2023-04-08T05:21:15;7.60;99.90
10875;DHT22;5490;52.200;8.786;2023-04-08T05:23:42;7.60;99.90
10875;DHT22;5490;52.200;8.786;2023-04-08T05:26:09;7.60;99.90
10875;DHT22;5490;52.200;8.786;2023-04-08T05:28:37;7.60;99.90
10875;DHT22;5490;52.200;8.786;2023-04-08T05:31:03;7.60;99.90
10875;DHT22;5490;52.200;8.786;2023-04-08T05:33:30;7.60;99.90
10875;DHT22;5490;52.200;8.786;2023-04-08T05:35:57;7.60;99.90
10875;DHT22;5490;52.200;8.786;2023-04-08T05:38:24;7.60;99.90
10875;DHT22;5490;52.200;8.786;2023-04-08T05:40:50;7.70;99.90
10875;DHT22;5490;52.200;8.786;2023-04-08T05:43:17;7.70;99.90
10875;DHT22;5490;52.200;8.786;2023-04-08T05:45:45;7.70;99.90
10875;DHT22;5490;52.200;8.786;2023-04-08T05:48:12;7.70;99.90
10875;DHT22;5490;52.200;8.786;2023-04-08T05:50:38;7.70;99.90
10875;DHT22;5490;52.200;8.786;2023-04-08T05:53:05;7.70;99.90
10875;DHT22;5490;52.200;8.786;2023-04-08T05:55:32;7.70;99.90
10875;DHT22;5490;52.200;8.786;2023-04-08T05:57:59;7.70;99.90
10875;DHT22;5490;52.200;8.786;2023-04-08T06:00:25;7.70;99.90
10875;DHT22;5490;52.200;8.786;2023-04-08T06:02:54;7.70;99.90
10875;DHT22;5490;52.200;8.786;2023-04-08T06:05:21;7.70;99.90
10875;DHT22;5490;52.200;8.786;2023-04-08T06:07:47;7.70;99.90
10875;DHT22;5490;52.200;8.786;2023-04-08T06:10:15;7.70;99.90
10875;DHT22;5490;52.200;8.786;2023-04-08T06:12:41;7.70;99.90
10875;DHT22;5490;52.200;8.786;2023-04-08T06:15:08;7.80;99.90
10875;DHT22;5490;52.200;8.786;2023-04-08T06:17:35;7.80;99.90
10875;DHT22;5490;52.200;8.786;2023-04-08T06:20:06;7.80;99.90
10875;DHT22;5490;52.200;8.786;2023-04-08T06:22:33;7.80;99.90
10875;DHT22;5490;52.200;8.786;2023-04-08T06:25:00;7.90;99.90
10875;DHT22;5490;52.200;8.786;2023-04-08T06:27:27;7.80;99.90
10875;DHT22;5490;52.200;8.786;2023-04-08T06:29:54;7.90;99.90
10875;DHT22;5490;52.200;8.786;2023-04-08T06:32:21;7.90;99.90
10875;DHT22;5490;52.200;8.786;2023-04-08T06:34:48;7.90;99.90
10875;DHT22;5490;52.200;8.786;2023-04-08T06:37:16;8.00;99.90
10875;DHT22;5490;52.200;8.786;2023-04-08T06:39:43;8.00;99.90
10875;DHT22;5490;52.200;8.786;2023-04-08T06:42:10;8.10;99.90
10875;DHT22;5490;52.200;8.786;2023-04-08T06:44:36;8.20;99.90
10875;DHT22;5490;52.200;8.786;2023-04-08T06:47:03;8.20;99.90
10875;DHT22;5490;52.200;8.786;2023-04-08T06:49:30;8.20;99.90
10875;DHT22;5490;52.200;8.786;2023-04-08T06:51:56;8.30;99.90
10875;DHT22;5490;52.200;8.786;2023-04-08T06:54:24;8.30;99.90
10875;DHT22;5490;52.200;8.786;2023-04-08T06:56:51;8.30;99.90
10875;DHT22;5490;52.200;8.786;2023-04-08T06:59:18;8.30;99.90
10875;DHT22;5490;52.200;8.786;2023-04-08T07:01:45;8.30;99.90
10875;DHT22;5490;52.200;8.786;2023-04-08T07:04:12;8.30;99.90
10875;DHT22;5490;52.200;8.786;2023-04-08T07:06:38;8.30;99.90
10875;DHT22;5490;52.200;8.786;2023-04-08T07:09:05;8.30;99.90
10875;DHT22;5490;52.200;8.786;2023-04-08T07:11:33;8.30;99.90
10875;DHT22;5490;52.200;8.786;2023-04-08T07:14:00;8.30;99.90
10875;DHT22;5490;52.200;8.786;2023-04-08T07:16:27;8.30;99.90
10875;DHT22;5490;52.200;8.786;2023-04-08T07:18:54;8.30;99.90
10875;DHT22;5490;52.200;8.786;2023-04-08T07:21:21;8.40;99.90
10875;DHT22;5490;52.200;8.786;2023-04-08T07:23:48;8.40;99.90
10875;DHT22;5490;52.200;8.786;2023-04-08T07:26:15;8.40;99.90
10875;DHT22;5490;52.200;8.786;2023-04-08T07:28:43;8.40;99.90
10875;DHT22;5490;52.200;8.786;2023-04-08T07:31:12;8.40;99.90
10875;DHT22;5490;52.200;8.786;2023-04-08T07:33:39;8.30;99.90
10875;DHT22;5490;52.200;8.786;2023-04-08T07:36:06;8.30;99.90
10875;DHT22;5490;52.200;8.786;2023-04-08T07:38:32;8.30;99.90
10875;DHT22;5490;52.200;8.786;2023-04-08T07:40:59;8.40;99.90
10875;DHT22;5490;52.200;8.786;2023-04-08T07:43:26;8.40;99.90
10875;DHT22;5490;52.200;8.786;2023-04-08T07:45:59;8.40;99.90
10875;DHT22;5490;52.200;8.786;2023-04-08T07:48:27;8.50;99.90
10875;DHT22;5490;52.200;8.786;2023-04-08T07:50:54;8.50;99.90
10875;DHT22;5490;52.200;8.786;2023-04-08T07:53:21;8.50;99.90
10875;DHT22;5490;52.200;8.786;2023-04-08T07:55:48;8.50;99.90
10875;DHT22;5490;52.200;8.786;2023-04-08T07:58:14;8.50;99.90
10875;DHT22;5490;52.200;8.786;2023-04-08T08:00:41;8.50;99.90
10875;DHT22;5490;52.200;8.786;2023-04-08T08:03:09;8.40;99.90
10875;DHT22;5490;52.200;8.786;2023-04-08T08:05:36;8.50;99.90
10875;DHT22;5490;52.200;8.786;2023-04-08T08:08:03;8.50;99.90
10875;DHT22;5490;52.200;8.786;2023-04-08T08:10:32;8.60;99.90
10875;DHT22;5490;52.200;8.786;2023-04-08T08:12:59;8.70;99.90
10875;DHT22;5490;52.200;8.786;2023-04-08T08:15:25;8.80;99.90
10875;DHT22;5490;52.200;8.786;2023-04-08T08:17:52;8.90;99.90
10875;DHT22;5490;52.200;8.786;2023-04-08T08:20:20;8.80;99.90
10875;DHT22;5490;52.200;8.786;2023-04-08T08:22:47;8.80;99.90
10875;DHT22;5490;52.200;8.786;2023-04-08T08:25:14;8.80;99.90
10875;DHT22;5490;52.200;8.786;2023-04-08T08:27:41;8.80;99.90
10875;DHT22;5490;52.200;8.786;2023-04-08T08:30:08;8.80;99.90
10875;DHT22;5490;52.200;8.786;2023-04-08T08:32:35;8.90;99.90
10875;DHT22;5490;52.200;8.786;2023-04-08T08:35:02;8.90;99.90
10875;DHT22;5490;52.200;8.786;2023-04-08T08:37:30;8.90;99.90
10875;DHT22;5490;52.200;8.786;2023-04-08T08:39:57;9.00;99.90
10875;DHT22;5490;52.200;8.786;2023-04-08T08:42:24;9.00;99.90
10875;DHT22;5490;52.200;8.786;2023-04-08T08:44:51;9.00;99.90
10875;DHT22;5490;52.200;8.786;2023-04-08T08:47:18;9.10;99.90
10875;DHT22;5490;52.200;8.786;2023-04-08T08:49:46;9.10;99.90
10875;DHT22;5490;52.200;8.786;2023-04-08T08:52:15;9.20;99.90
10875;DHT22;5490;52.200;8.786;2023-04-08T08:54:44;9.20;99.90
10875;DHT22;5490;52.200;8.786;2023-04-08T08:57:17;9.20;99.90
10875;DHT22;5490;52.200;8.786;2023-04-08T08:59:45;9.20;99.90
10875;DHT22;5490;52.200;8.786;2023-04-08T09:02:23;9.20;99.90
10875;DHT22;5490;52.200;8.786;2023-04-08T09:04:56;9.30;99.90
10875;DHT22;5490;52.200;8.786;2023-04-08T09:07:24;9.30;99.90
10875;DHT22;5490;52.200;8.786;2023-04-08T09:09:53;9.30;99.90
10875;DHT22;5490;52.200;8.786;2023-04-08T09:12:20;9.20;99.90
10875;DHT22;5490;52.200;8.786;2023-04-08T09:14:47;9.20;99.90
10875;DHT22;5490;52.200;8.786;2023-04-08T09:17:14;9.20;99.90
10875;DHT22;5490;52.200;8.786;2023-04-08T09:20:03;9.20;99.90
10875;DHT22;5490;52.200;8.786;2023-04-08T09:22:34;9.20;99.90
10875;DHT22;5490;52.200;8.786;2023-04-08T09:25:22;9.40;99.90
10875;DHT22;5490;52.200;8.786;2023-04-08T09:27:49;9.40;99.90
10875;DHT22;5490;52.200;8.786;2023-04-08T09:30:16;9.60;99.90
10875;DHT22;5490;52.200;8.786;2023-04-08T09:32:47;9.70;99.90
10875;DHT22;5490;52.200;8.786;2023-04-08T09:35:14;9.70;99.90
10875;DHT22;5490;52.200;8.786;2023-04-08T09:37:41;9.80;99.90
10875;DHT22;5490;52.200;8.786;2023-04-08T09:40:10;9.90;99.90
10875;DHT22;5490;52.200;8.786;2023-04-08T09:42:39;10.00;99.90
10875;DHT22;5490;52.200;8.786;2023-04-08T09:45:09;10.00;99.90
10875;DHT22;5490;52.200;8.786;2023-04-08T09:47:43;10.00;99.90
10875;DHT22;5490;52.200;8.786;2023-04-08T09:50:14;10.00;99.90
10875;DHT22;5490;52.200;8.786;2023-04-08T09:52:44;10.00;99.90
10875;DHT22;5490;52.200;8.786;2023-04-08T09:55:17;10.00;99.90
10875;DHT22;5490;52.200;8.786;2023-04-08T09:57:50;10.10;99.90
10875;DHT22;5490;52.200;8.786;2023-04-08T10:00:18;10.20;99.90
10875;DHT22;5490;52.200;8.786;2023-04-08T10:02:58;10.20;99.90
10875;DHT22;5490;52.200;8.786;2023-04-08T10:05:26;10.20;99.90
10875;DHT22;5490;52.200;8.786;2023-04-08T10:07:55;10.30;99.90
10875;DHT22;5490;52.200;8.786;2023-04-08T10:10:24;10.30;99.90
10875;DHT22;5490;52.200;8.786;2023-04-08T10:12:52;10.30;99.90
10875;DHT22;5490;52.200;8.786;2023-04-08T10:15:23;10.40;99.90
10875;DHT22;5490;52.200;8.786;2023-04-08T10:17:51;10.40;99.90
10875;DHT22;5490;52.200;8.786;2023-04-08T10:20:48;10.40;99.90
10875;DHT22;5490;52.200;8.786;2023-04-08T10:23:17;10.40;99.90
10875;DHT22;5490;52.200;8.786;2023-04-08T10:25:47;10.50;99.90
10875;DHT22;5490;52.200;8.786;2023-04-08T10:28:24;10.40;99.90
10875;DHT22;5490;52.200;8.786;2023-04-08T10:30:52;10.50;99.90
10875;DHT22;5490;52.200;8.786;2023-04-08T10:33:21;10.40;99.90
10875;DHT22;5490;52.200;8.786;2023-04-08T10:35:52;10.40;99.90
10875;DHT22;5490;52.200;8.786;2023-04-08T10:38:19;10.40;99.90
10875;DHT22;5490;52.200;8.786;2023-04-08T10:40:48;10.40;99.90
10875;DHT22;5490;52.200;8.786;2023-04-08T10:43:16;10.40;99.90
10875;DHT22;5490;52.200;8.786;2023-04-08T10:45:52;10.30;99.90
10875;DHT22;5490;52.200;8.786;2023-04-08T10:48:21;10.20;99.90
10875;DHT22;5490;52.200;8.786;2023-04-08T10:50:53;10.20;99.90
10875;DHT22;5490;52.200;8.786;2023-04-08T10:53:25;10.30;99.90
10875;DHT22;5490;52.200;8.786;2023-04-08T10:56:02;10.30;99.90
10875;DHT22;5490;52.200;8.786;2023-04-08T10:58:30;10.40;99.90
10875;DHT22;5490;52.200;8.786;2023-04-08T11:01:02;10.50;99.90
10875;DHT22;5490;52.200;8.786;2023-04-08T11:03:31;10.60;99.90
10875;DHT22;5490;52.200;8.786;2023-04-08T11:05:59;10.50;99.90
10875;DHT22;5490;52.200;8.786;2023-04-08T11:08:27;10.50;99.90
10875;DHT22;5490;52.200;8.786;2023-04-08T11:10:54;10.60;99.90
10875;DHT22;5490;52.200;8.786;2023-04-08T11:13:22;10.60;99.90
10875;DHT22;5490;52.200;8.786;2023-04-08T11:15:49;10.60;99.90
10875;DHT22;5490;52.200;8.786;2023-04-08T11:18:17;10.60;99.90
10875;DHT22;5490;52.200;8.786;2023-04-08T11:20:44;10.50;99.90
10875;DHT22;5490;52.200;8.786;2023-04-08T11:23:12;10.60;99.90
10875;DHT22;5490;52.200;8.786;2023-04-08T11:25:39;10.70;99.90
10875;DHT22;5490;52.200;8.786;2023-04-08T11:28:06;10.70;99.90
10875;DHT22;5490;52.200;8.786;2023-04-08T11:30:35;10.70;99.90
10875;DHT22;5490;52.200;8.786;2023-04-08T11:33:02;10.60;99.90
10875;DHT22;5490;52.200;8.786;2023-04-08T11:35:29;10.50;99.90
10875;DHT22;5490;52.200;8.786;2023-04-08T11:37:56;10.50;99.90
10875;DHT22;5490;52.200;8.786;2023-04-08T11:40:24;10.60;99.90
10875;DHT22;5490;52.200;8.786;2023-04-08T11:42:51;10.80;99.90
10875;DHT22;5490;52.200;8.786;2023-04-08T11:45:26;11.00;99.90
10875;DHT22;5490;52.200;8.786;2023-04-08T11:47:55;11.10;99.90
10875;DHT22;5490;52.200;8.786;2023-04-08T11:50:22;11.30;99.90
10875;DHT22;5490;52.200;8.786;2023-04-08T11:52:50;11.30;99.90
10875;DHT22;5490;52.200;8.786;2023-04-08T11:55:25;11.40;99.90
10875;DHT22;5490;52.200;8.786;2023-04-08T11:57:53;11.30;99.90
10875;DHT22;5490;52.200;8.786;2023-04-08T12:00:21;11.20;99.90
10875;DHT22;5490;52.200;8.786;2023-04-08T12:02:48;11.20;99.90
10875;DHT22;5490;52.200;8.786;2023-04-08T12:05:17;11.20;99.90
10875;DHT22;5490;52.200;8.786;2023-04-08T12:07:44;11.30;99.90
10875;DHT22;5490;52.200;8.786;2023-04-08T12:10:11;11.20;99.90
10875;DHT22;5490;52.200;8.786;2023-04-08T12:12:39;11.20;99.90
10875;DHT22;5490;52.200;8.786;2023-04-08T12:15:07;11.20;99.90
10875;DHT22;5490;52.200;8.786;2023-04-08T12:17:34;11.30;99.90
10875;DHT22;5490;52.200;8.786;2023-04-08T12:20:00;11.40;99.90
10875;DHT22;5490;52.200;8.786;2023-04-08T12:22:30;11.50;99.90
10875;DHT22;5490;52.200;8.786;2023-04-08T12:24:56;11.50;99.90
10875;DHT22;5490;52.200;8.786;2023-04-08T12:27:23;11.60;99.90
10875;DHT22;5490;52.200;8.786;2023-04-08T12:29:50;11.50;99.90
10875;DHT22;5490;52.200;8.786;2023-04-08T12:32:17;11.50;99.90
10875;DHT22;5490;52.200;8.786;2023-04-08T12:34:44;11.50;99.90
10875;DHT22;5490;52.200;8.786;2023-04-08T12:37:11;11.60;99.90
10875;DHT22;5490;52.200;8.786;2023-04-08T12:39:39;11.70;99.90
10875;DHT22;5490;52.200;8.786;2023-04-08T12:42:06;11.60;99.90
10875;DHT22;5490;52.200;8.786;2023-04-08T12:44:32;11.70;99.90
10875;DHT22;5490;52.200;8.786;2023-04-08T12:46:59;11.70;99.90
10875;DHT22;5490;52.200;8.786;2023-04-08T12:49:26;11.70;99.90
10875;DHT22;5490;52.200;8.786;2023-04-08T12:51:53;11.60;99.90
10875;DHT22;5490;52.200;8.786;2023-04-08T12:54:20;11.70;99.90
10875;DHT22;5490;52.200;8.786;2023-04-08T12:56:48;11.80;99.90
10875;DHT22;5490;52.200;8.786;2023-04-08T12:59:15;11.90;99.90
10875;DHT22;5490;52.200;8.786;2023-04-08T13:01:42;12.00;99.90
10875;DHT22;5490;52.200;8.786;2023-04-08T13:04:09;12.00;99.90
10875;DHT22;5490;52.200;8.786;2023-04-08T13:06:36;11.80;99.90
10875;DHT22;5490;52.200;8.786;2023-04-08T13:09:03;11.70;99.90
10875;DHT22;5490;52.200;8.786;2023-04-08T13:11:30;11.60;99.90
10875;DHT22;5490;52.200;8.786;2023-04-08T13:14:00;11.60;99.90
10875;DHT22;5490;52.200;8.786;2023-04-08T13:16:27;11.60;99.90
10875;DHT22;5490;52.200;8.786;2023-04-08T13:18:54;11.60;99.90
10875;DHT22;5490;52.200;8.786;2023-04-08T13:21:20;11.50;99.90
10875;DHT22;5490;52.200;8.786;2023-04-08T13:23:47;11.50;99.90
10875;DHT22;5490;52.200;8.786;2023-04-08T13:26:14;11.50;99.90
10875;DHT22;5490;52.200;8.786;2023-04-08T13:28:40;11.40;99.90
10875;DHT22;5490;52.200;8.786;2023-04-08T13:31:09;11.30;99.90
10875;DHT22;5490;52.200;8.786;2023-04-08T13:33:38;11.30;99.90
10875;DHT22;5490;52.200;8.786;2023-04-08T13:36:05;11.30;99.90
10875;DHT22;5490;52.200;8.786;2023-04-08T13:38:32;11.30;99.90
10875;DHT22;5490;52.200;8.786;2023-04-08T13:40:59;11.30;99.90
10875;DHT22;5490;52.200;8.786;2023-04-08T13:43:26;11.10;99.90
10875;DHT22;5490;52.200;8.786;2023-04-08T13:45:52;11.10;99.90
10875;DHT22;5490;52.200;8.786;2023-04-08T13:48:21;11.10;99.90
10875;DHT22;5490;52.200;8.786;2023-04-08T13:50:47;11.00;99.90
10875;DHT22;5490;52.200;8.786;2023-04-08T13:53:14;10.90;99.90
10875;DHT22;5490;52.200;8.786;2023-04-08T13:55:41;11.00;99.90
10875;DHT22;5490;52.200;8.786;2023-04-08T13:58:08;11.00;99.90
10875;DHT22;5490;52.200;8.786;2023-04-08T14:00:35;11.20;99.90
10875;DHT22;5490;52.200;8.786;2023-04-08T14:03:02;11.10;99.90
10875;DHT22;5490;52.200;8.786;2023-04-08T14:05:30;11.20;99.90
10875;DHT22;5490;52.200;8.786;2023-04-08T14:07:57;11.10;99.90
10875;DHT22;5490;52.200;8.786;2023-04-08T14:10:23;11.20;99.90
10875;DHT22;5490;52.200;8.786;2023-04-08T14:12:50;11.20;99.90
10875;DHT22;5490;52.200;8.786;2023-04-08T14:15:17;11.20;99.90
10875;DHT22;5490;52.200;8.786;2023-04-08T14:17:43;11.20;99.90
10875;DHT22;5490;52.200;8.786;2023-04-08T14:20:10;11.20;99.90
10875;DHT22;5490;52.200;8.786;2023-04-08T14:22:38;11.20;99.90
10875;DHT22;5490;52.200;8.786;2023-04-08T14:25:06;11.10;99.90
10875;DHT22;5490;52.200;8.786;2023-04-08T14:27:33;11.20;99.90
10875;DHT22;5490;52.200;8.786;2023-04-08T14:30:00;11.20;99.90
10875;DHT22;5490;52.200;8.786;2023-04-08T14:32:27;11.30;99.90
10875;DHT22;5490;52.200;8.786;2023-04-08T14:34:54;11.30;99.90
10875;DHT22;5490;52.200;8.786;2023-04-08T14:37:21;11.30;99.90
10875;DHT22;5490;52.200;8.786;2023-04-08T14:39:49;11.30;99.90
10875;DHT22;5490;52.200;8.786;2023-04-08T14:42:15;11.30;99.90
10875;DHT22;5490;52.200;8.786;2023-04-08T14:44:42;11.30;99.90
10875;DHT22;5490;52.200;8.786;2023-04-08T14:47:09;11.10;99.90
10875;DHT22;5490;52.200;8.786;2023-04-08T14:49:36;11.00;99.90
10875;DHT22;5490;52.200;8.786;2023-04-08T14:52:03;11.00;99.90
10875;DHT22;5490;52.200;8.786;2023-04-08T14:54:30;11.00;99.90
10875;DHT22;5490;52.200;8.786;2023-04-08T14:56:58;10.90;99.90
10875;DHT22;5490;52.200;8.786;2023-04-08T14:59:25;11.00;99.90
10875;DHT22;5490;52.200;8.786;2023-04-08T15:01:52;11.00;99.90
10875;DHT22;5490;52.200;8.786;2023-04-08T15:04:18;11.10;99.90
10875;DHT22;5490;52.200;8.786;2023-04-08T15:06:45;11.10;99.90
10875;DHT22;5490;52.200;8.786;2023-04-08T15:09:12;11.20;99.90
10875;DHT22;5490;52.200;8.786;2023-04-08T15:11:39;11.20;99.90
10875;DHT22;5490;52.200;8.786;2023-04-08T15:14:07;11.30;99.90
10875;DHT22;5490;52.200;8.786;2023-04-08T15:16:33;11.30;99.90
10875;DHT22;5490;52.200;8.786;2023-04-08T15:19:00;11.40;99.90
10875;DHT22;5490;52.200;8.786;2023-04-08T15:21:27;11.40;99.90
10875;DHT22;5490;52.200;8.786;2023-04-08T15:23:53;11.30;99.90
10875;DHT22;5490;52.200;8.786;2023-04-08T15:26:20;11.20;99.90
10875;DHT22;5490;52.200;8.786;2023-04-08T15:28:47;11.20;99.90
10875;DHT22;5490;52.200;8.786;2023-04-08T15:31:15;11.20;99.90
10875;DHT22;5490;52.200;8.786;2023-04-08T15:33:42;11.10;99.90
10875;DHT22;5490;52.200;8.786;2023-04-08T15:36:09;11.10;99.90
10875;DHT22;5490;52.200;8.786;2023-04-08T15:38:36;11.10;99.90
10875;DHT22;5490;52.200;8.786;2023-04-08T15:41:04;11.10;99.90
10875;DHT22;5490;52.200;8.786;2023-04-08T15:43:30;11.20;99.90
10875;DHT22;5490;52.200;8.786;2023-04-08T15:45:57;11.20;99.90
10875;DHT22;5490;52.200;8.786;2023-04-08T15:48:25;11.10;99.90
10875;DHT22;5490;52.200;8.786;2023-04-08T15:50:52;11.10;99.90
10875;DHT22;5490;52.200;8.786;2023-04-08T15:53:19;11.10;99.90
10875;DHT22;5490;52.200;8.786;2023-04-08T15:55:46;11.10;99.90
10875;DHT22;5490;52.200;8.786;2023-04-08T15:58:14;11.00;99.90